Main page
METAR-TAF:

METAR-TAF

Airports :

Base Aérea de Armilla

Granada, Spain

latitude: 37-08N, longitude: 003-38-08W, elevation: 700 m

Current weather observation

The report was made 2 hours and 27 minutes ago, at 20:00 UTC
Wind 5 kt from the South, varying between South/Southeast and Southwest
Temperature 12°C
Humidity 88%
Pressure 1027 hPa
Visibility 10 km or more
Few clouds at a height of 2000 ft

METAR: LEGA 272000Z 19005KT 160V220 9999 FEW020 12/10 Q1027

Time: 23:27 (22:27 UTC)

Forecast

The report was made 5 hours and 27 minutes ago, at 17:00 UTC
Forecast valid from 27 at 18 UTC to 28 at 18 UTC
Wind 6 kt from the Northwest
Visibility 10 km or more
Few clouds at a height of 2000 ft

TAF: LEGA 271700Z 2718/2818 32006KT 9999 FEW020 TX21/2815Z TN09/2807Z

Weather observations and forecasts of more than 4000 airports (METAR and TAF reports).

The available stations are represented by yellow and red dots on the map.

Hover mouse over dot to see the name of the station.

Then click to see weather observations and forecasts.

To change the map : click on the green buttons with a black cross to zoom in, on the green button with a dash to zoom out, or on the green arrows for adjacent maps.


METAR-TAF: